Time;durP1;ratioP1;P1;durP2;ratioP2;P2;SDS_P1;SDS_P2;PMS_P1;PMS_P2;Temp;Humidity;BMP_temperature;BMP_pressure;BME280_temperature;BME280_humidity;BME280_pressure;Samples;Min_cycle;Max_cycle;Signal;HPM_P1;HPM_P2
2022/12/18 08:54:00;;;;;;;17.10;9.88;;;22.30;45.20;;;;;;6156017;27;76866;-59
2022/12/18 08:57:00;;;;;;;23.10;11.02;;;22.40;45.90;;;;;;6119695;28;80151;-64
2022/12/18 09:00:01;;;;;;;19.90;11.50;;;22.40;46.70;;;;;;6102220;28;89258;-59
2022/12/18 09:03:01;;;;;;;20.13;11.82;;;22.30;45.60;;;;;;6092133;28;82746;-59
2022/12/18 09:06:02;;;;;;;22.13;12.43;;;22.30;45.90;;;;;;6097219;28;83758;-60
2022/12/18 09:09:02;;;;;;;21.13;12.55;;;22.30;45.20;;;;;;6089162;28;84090;-60
2022/12/18 09:12:03;;;;;;;16.30;10.25;;;22.30;46.10;;;;;;6092421;28;84283;-61
2022/12/18 09:15:04;;;;;;;16.05;10.27;;;22.30;46.00;;;;;;6098863;28;83802;-67
2022/12/18 09:18:04;;;;;;;19.02;11.35;;;22.30;45.80;;;;;;6107113;28;82946;-70
2022/12/18 09:21:05;;;;;;;19.67;10.88;;;22.40;46.00;;;;;;6115605;28;84132;-67
2022/12/18 09:24:05;;;;;;;20.48;11.23;;;22.40;46.10;;;;;;6105787;28;83567;-67
2022/12/18 09:27:06;;;;;;;20.77;10.93;;;22.40;46.00;;;;;;6104015;28;83360;-64
2022/12/18 09:30:06;;;;;;;19.25;10.73;;;22.50;46.80;;;;;;6109814;28;89967;-67
2022/12/18 09:33:07;;;;;;;23.58;11.13;;;22.50;46.10;;;;;;6114273;28;85013;-68
2022/12/18 09:36:07;;;;;;;21.40;11.52;;;22.50;46.10;;;;;;6114123;28;83183;-66
2022/12/18 09:39:08;;;;;;;25.52;10.90;;;22.50;46.10;;;;;;6110153;28;83662;-64
2022/12/18 09:42:08;;;;;;;19.02;10.65;;;22.50;46.00;;;;;;6106562;28;83167;-67
2022/12/18 09:45:09;;;;;;;20.15;11.25;;;22.50;45.90;;;;;;6103996;28;83257;-67
2022/12/18 09:48:09;;;;;;;18.83;11.05;;;22.50;45.90;;;;;;6117734;28;82978;-68
2022/12/18 09:51:10;;;;;;;18.75;10.82;;;22.50;46.20;;;;;;6073904;28;84553;-66
2022/12/18 09:54:10;;;;;;;25.60;10.45;;;22.60;45.90;;;;;;6116094;28;88483;-67
2022/12/18 09:57:11;;;;;;;16.67;10.18;;;22.60;45.90;;;;;;6114680;28;88034;-69
2022/12/18 10:00:12;;;;;;;16.95;10.30;;;22.60;45.80;;;;;;6108858;28;84570;-69
2022/12/18 10:03:13;;;;;;;20.52;10.70;;;22.70;45.80;;;;;;6101993;28;83436;-66
2022/12/18 10:06:13;;;;;;;21.00;10.68;;;22.70;45.70;;;;;;6100198;28;83171;-67
2022/12/18 10:09:14;;;;;;;23.33;11.70;;;22.70;45.60;;;;;;6099869;28;83411;-69
2022/12/18 10:12:14;;;;;;;21.27;11.05;;;22.80;45.80;;;;;;6086072;28;83544;-71
2022/12/18 10:15:15;;;;;;;17.77;10.60;;;22.80;45.40;;;;;;6096315;28;85729;-73
2022/12/18 10:18:15;;;;;;;22.95;11.23;;;22.80;45.40;;;;;;6098293;28;83603;-72
2022/12/18 10:21:16;;;;;;;17.98;10.75;;;22.90;45.30;;;;;;6098725;28;89665;-64
2022/12/18 10:24:16;;;;;;;19.75;10.57;;;22.90;45.30;;;;;;6095363;28;85673;-71
2022/12/18 10:27:17;;;;;;;20.60;11.13;;;23.00;45.70;;;;;;6059535;28;83323;-69
2022/12/18 10:30:17;;;;;;;15.88;10.07;;;23.10;45.20;;;;;;6088595;28;89185;-59
2022/12/18 10:33:18;;;;;;;22.08;10.85;;;23.20;45.10;;;;;;6095649;28;83401;-59
2022/12/18 10:36:19;;;;;;;18.00;10.95;;;23.30;45.30;;;;;;6090908;28;83885;-59
2022/12/18 10:39:19;;;;;;;18.45;10.70;;;23.30;44.60;;;;;;6071549;28;82945;-60
2022/12/18 10:42:20;;;;;;;17.05;10.70;;;23.40;44.70;;;;;;6088357;28;86290;-58
2022/12/18 10:45:20;;;;;;;17.33;9.60;;;23.50;44.70;;;;;;6092009;28;83167;-62
2022/12/18 10:48:21;;;;;;;16.23;10.38;;;23.50;44.50;;;;;;6068289;28;81862;-74
2022/12/18 10:51:22;;;;;;;17.83;9.80;;;23.60;44.70;;;;;;6057274;28;84344;-67
2022/12/18 10:54:22;;;;;;;16.27;10.13;;;23.70;45.00;;;;;;6070053;28;83645;-64
2022/12/18 10:57:23;;;;;;;21.70;9.60;;;23.80;44.60;;;;;;6081309;28;84409;-69
2022/12/18 11:00:24;;;;;;;19.30;10.75;;;23.80;44.50;;;;;;6069723;28;83113;-66
2022/12/18 11:03:24;;;;;;;23.38;10.75;;;23.80;44.30;;;;;;6049847;28;83782;-62
2022/12/18 11:06:25;;;;;;;16.38;9.90;;;23.80;44.30;;;;;;6049574;28;83530;-59
2022/12/18 11:09:26;;;;;;;19.92;10.85;;;23.80;44.50;;;;;;6055920;28;82960;-59
2022/12/18 11:12:26;;;;;;;16.33;9.77;;;23.80;44.40;;;;;;6057611;28;84531;-58
2022/12/18 11:15:26;;;;;;;14.35;9.25;;;23.90;44.60;;;;;;6072097;28;84911;-59
2022/12/18 11:18:27;;;;;;;19.08;9.48;;;23.90;44.80;;;;;;6069065;28;80985;-57
2022/12/18 11:21:28;;;;;;;13.00;8.18;;;23.90;44.70;;;;;;6051894;28;82517;-57
2022/12/18 11:24:28;;;;;;;14.35;9.15;;;24.00;45.30;;;;;;6071873;28;81230;-58
2022/12/18 11:27:29;;;;;;;17.35;9.02;;;24.00;44.10;;;;;;6069142;28;81204;-58
2022/12/18 11:30:29;;;;;;;16.50;7.90;;;24.00;43.90;;;;;;6073106;28;83852;-60
2022/12/18 11:33:30;;;;;;;9.90;6.68;;;24.00;43.60;;;;;;6072597;28;82363;-56
2022/12/18 11:36:30;;;;;;;11.05;7.25;;;24.00;43.00;;;;;;6086501;28;81443;-56
2022/12/18 11:39:31;;;;;;;10.95;6.93;;;24.10;42.30;;;;;;6060284;28;82852;-60
2022/12/18 11:42:31;;;;;;;11.07;6.97;;;24.10;41.80;;;;;;6066738;28;80709;-58
2022/12/18 11:45:32;;;;;;;10.23;6.45;;;24.20;41.60;;;;;;6064315;28;82838;-58
2022/12/18 11:48:32;;;;;;;10.43;6.53;;;24.20;41.30;;;;;;6050029;28;83049;-59
2022/12/18 11:51:33;;;;;;;10.05;6.10;;;24.20;41.50;;;;;;6050332;28;80729;-58
2022/12/18 11:54:33;;;;;;;8.05;5.80;;;24.20;41.60;;;;;;6057647;28;86846;-57
2022/12/18 11:57:34;;;;;;;9.90;5.90;;;24.20;41.70;;;;;;6046933;28;86885;-57
2022/12/18 12:00:35;;;;;;;8.77;5.45;;;24.20;42.10;;;;;;6060008;28;86113;-58
2022/12/18 12:03:35;;;;;;;9.63;5.78;;;24.20;42.40;;;;;;6077577;28;82331;-59
2022/12/18 12:06:36;;;;;;;8.13;5.45;;;24.20;43.40;;;;;;6089968;28;81474;-58
2022/12/18 12:09:36;;;;;;;9.63;5.63;;;24.30;43.10;;;;;;6082259;28;82354;-60
2022/12/18 12:12:45;;;;;;;10.50;6.05;;;24.30;43.20;;;;;;6080853;28;80978;-59
2022/12/18 12:15:45;;;;;;;11.02;6.55;;;24.30;43.30;;;;;;6084172;28;81004;-59
2022/12/18 12:18:46;;;;;;;9.77;6.32;;;24.30;43.60;;;;;;6082288;28;81372;-59
2022/12/18 12:21:46;;;;;;;8.95;5.85;;;24.30;43.70;;;;;;6074689;28;84304;-57
2022/12/18 12:24:47;;;;;;;8.95;5.40;;;24.30;43.60;;;;;;6085907;28;81864;-60
2022/12/18 12:27:47;;;;;;;11.05;6.43;;;24.30;43.60;;;;;;6098188;28;82752;-59
2022/12/18 12:30:48;;;;;;;10.55;5.85;;;24.30;43.60;;;;;;6093266;28;81310;-62
2022/12/18 12:33:48;;;;;;;11.45;6.95;;;24.30;43.50;;;;;;6076889;28;81639;-61
2022/12/18 12:36:49;;;;;;;9.63;6.25;;;24.30;43.30;;;;;;6082854;28;82255;-50
2022/12/18 12:39:49;;;;;;;10.07;5.85;;;24.20;43.60;;;;;;6077453;28;80439;-55
2022/12/18 12:46:09;;;;;;;10.73;7.18;;;24.20;43.30;;;;;;6083683;28;81107;-55
2022/12/18 12:49:09;;;;;;;10.05;6.78;;;24.30;43.60;;;;;;6084252;28;80436;-56
2022/12/18 12:52:10;;;;;;;10.52;6.93;;;24.30;44.30;;;;;;6083786;28;80649;-58
2022/12/18 12:55:10;;;;;;;11.20;6.50;;;24.30;43.60;;;;;;6081932;28;80876;-60
2022/12/18 12:58:11;;;;;;;11.10;7.15;;;24.30;43.70;;;;;;6088254;28;80699;-61
2022/12/18 13:01:14;;;;;;;12.38;7.25;;;24.30;44.00;;;;;;6082350;28;80801;-60
2022/12/18 13:04:15;;;;;;;11.57;7.13;;;24.30;43.80;;;;;;6081043;28;81345;-59
2022/12/18 13:07:16;;;;;;;15.13;7.22;;;24.20;44.50;;;;;;6069104;28;80895;-59
2022/12/18 13:10:16;;;;;;;12.23;7.57;;;24.20;44.70;;;;;;6058327;28;81245;-60
2022/12/18 13:13:17;;;;;;;13.52;8.00;;;24.20;44.60;;;;;;6055188;28;81661;-56
2022/12/18 13:16:17;;;;;;;13.25;7.35;;;24.10;44.40;;;;;;6081612;28;81199;-56
2022/12/18 13:19:18;;;;;;;12.13;7.50;;;24.20;45.00;;;;;;6081090;28;83266;-58
2022/12/18 13:22:18;;;;;;;15.15;8.27;;;24.10;44.90;;;;;;6089558;28;81605;-58
2022/12/18 13:25:19;;;;;;;20.35;8.90;;;24.10;44.90;;;;;;6091545;28;83301;-62
2022/12/18 13:28:19;;;;;;;27.63;15.70;;;24.10;44.50;;;;;;6088237;28;82146;-57
2022/12/18 13:31:20;;;;;;;33.58;19.33;;;23.90;38.30;;;;;;6058806;28;87107;-58
2022/12/18 13:34:20;;;;;;;33.70;17.65;;;23.40;34.90;;;;;;6090671;28;83344;-54
2022/12/18 13:37:21;;;;;;;27.45;16.33;;;23.20;37.90;;;;;;6090365;28;84995;-58
2022/12/18 13:40:21;;;;;;;26.83;15.73;;;23.50;39.40;;;;;;6086177;28;84025;-56
2022/12/18 13:43:22;;;;;;;30.70;17.23;;;23.70;39.70;;;;;;6093292;28;83943;-54
2022/12/18 13:46:22;;;;;;;33.75;18.58;;;23.80;38.80;;;;;;6099846;28;84104;-55
2022/12/18 13:49:23;;;;;;;32.13;18.58;;;23.80;36.30;;;;;;6086097;28;83728;-58
2022/12/18 13:52:23;;;;;;;33.97;18.77;;;23.90;35.40;;;;;;6092027;28;86775;-57
2022/12/18 13:55:24;;;;;;;33.80;17.73;;;24.00;34.50;;;;;;6098317;28;85539;-56
2022/12/18 13:58:24;;;;;;;28.92;16.55;;;23.90;35.30;;;;;;6091497;28;83284;-59
2022/12/18 14:01:25;;;;;;;21.55;13.63;;;23.80;35.90;;;;;;6092709;28;83230;-59
2022/12/18 14:04:25;;;;;;;22.17;13.23;;;23.70;37.30;;;;;;6097584;28;83341;-58
2022/12/18 14:07:26;;;;;;;22.05;12.25;;;23.70;38.30;;;;;;6068226;28;88626;-63
2022/12/18 14:10:27;;;;;;;21.67;11.77;;;23.70;39.50;;;;;;6087006;28;83213;-66
2022/12/18 14:13:27;;;;;;;16.88;11.00;;;23.60;40.40;;;;;;6093033;28;86748;-63
2022/12/18 14:16:28;;;;;;;16.38;9.77;;;23.50;40.80;;;;;;6085584;28;86096;-64
2022/12/18 14:19:28;;;;;;;17.10;10.65;;;23.50;41.90;;;;;;6097333;28;83038;-62
2022/12/18 14:22:29;;;;;;;18.02;10.80;;;23.50;42.30;;;;;;6074453;28;89125;-66
2022/12/18 14:25:30;;;;;;;15.63;10.13;;;23.30;42.90;;;;;;6074177;28;84089;-64
2022/12/18 14:28:30;;;;;;;16.45;10.10;;;23.30;43.40;;;;;;6079994;28;83650;-72
2022/12/18 14:31:31;;;;;;;16.58;10.07;;;23.20;43.50;;;;;;6076666;28;85155;-68
2022/12/18 14:34:32;;;;;;;16.48;9.88;;;23.10;43.80;;;;;;6075360;28;83896;-71
2022/12/18 14:37:32;;;;;;;16.73;10.27;;;23.10;43.90;;;;;;6075406;28;83422;-69
2022/12/18 14:40:33;;;;;;;16.77;9.82;;;23.10;43.90;;;;;;6078909;28;84545;-67
2022/12/18 14:43:33;;;;;;;20.17;11.02;;;23.10;43.80;;;;;;6076787;28;81765;-68
2022/12/18 14:46:34;;;;;;;22.38;12.13;;;23.10;43.60;;;;;;6077175;28;85859;-62
2022/12/18 14:49:36;;;;;;;22.58;12.45;;;23.00;43.30;;;;;;6068823;28;84501;-59
2022/12/18 14:52:37;;;;;;;19.98;12.52;;;23.00;43.60;;;;;;6077552;28;83513;-58
2022/12/18 14:55:37;;;;;;;21.10;12.40;;;23.00;43.50;;;;;;6076307;28;84848;-60
2022/12/18 14:58:38;;;;;;;20.45;13.25;;;23.00;43.60;;;;;;6076232;28;85472;-58
2022/12/18 15:01:38;;;;;;;22.75;13.02;;;23.10;43.60;;;;;;6063324;28;83247;-57
2022/12/18 15:04:43;;;;;;;21.30;12.93;;;23.10;43.50;;;;;;6048435;28;91722;-59
2022/12/18 15:07:43;;;;;;;22.30;13.65;;;23.00;43.60;;;;;;6067155;28;83164;-61
2022/12/18 15:10:44;;;;;;;20.00;12.95;;;23.10;43.30;;;;;;6065227;28;85283;-58
2022/12/18 15:13:44;;;;;;;23.48;14.13;;;23.10;43.70;;;;;;6064608;28;83729;-60
2022/12/18 15:16:45;;;;;;;18.92;12.50;;;23.10;43.90;;;;;;6081163;28;82876;-59
2022/12/18 15:19:45;;;;;;;23.08;12.88;;;23.10;43.70;;;;;;6096830;28;88143;-59
2022/12/18 15:22:46;;;;;;;20.25;12.65;;;23.10;43.60;;;;;;6081871;28;83443;-66
2022/12/18 15:25:46;;;;;;;24.35;12.65;;;23.10;43.60;;;;;;6076748;28;88013;-65
2022/12/18 15:28:47;;;;;;;20.60;12.80;;;23.20;43.70;;;;;;6076039;28;83491;-69
2022/12/18 15:31:47;;;;;;;21.63;12.80;;;23.20;43.60;;;;;;6081122;28;83198;-67
2022/12/18 15:34:48;;;;;;;19.88;13.40;;;23.20;43.30;;;;;;6086848;28;84014;-69
2022/12/18 15:37:49;;;;;;;22.27;14.35;;;23.20;43.30;;;;;;6093225;28;84459;-67
2022/12/18 15:40:49;;;;;;;22.23;12.90;;;23.20;43.30;;;;;;6086286;28;84658;-70
2022/12/18 15:43:50;;;;;;;24.58;14.10;;;23.10;43.50;;;;;;6092203;28;83364;-70
2022/12/18 15:46:50;;;;;;;22.73;13.10;;;23.10;43.50;;;;;;6087624;28;84038;-71
2022/12/18 15:49:51;;;;;;;22.70;13.68;;;23.10;43.60;;;;;;6084439;28;83457;-71
2022/12/18 15:52:51;;;;;;;22.63;14.18;;;23.00;43.70;;;;;;6091039;28;84537;-71
2022/12/18 15:59:11;;;;;;;25.13;14.48;;;23.00;44.00;;;;;;6075812;28;85656;-71
2022/12/18 16:02:12;;;;;;;25.00;13.60;;;23.00;44.00;;;;;;6081269;28;83738;-70
2022/12/18 16:05:12;;;;;;;20.75;13.13;;;22.90;44.00;;;;;;6080812;28;83692;-68
2022/12/18 16:08:13;;;;;;;22.33;13.73;;;22.90;44.20;;;;;;6064327;28;84526;-69
2022/12/18 16:11:14;;;;;;;20.35;13.02;;;22.90;44.50;;;;;;6058343;28;84430;-67
2022/12/18 16:14:14;;;;;;;21.10;14.32;;;22.80;44.60;;;;;;6097075;28;83296;-72
2022/12/18 16:17:15;;;;;;;22.92;13.77;;;22.80;44.70;;;;;;6077800;28;86628;-75
2022/12/18 16:20:15;;;;;;;24.13;14.05;;;22.70;44.70;;;;;;6051519;28;83141;-71
2022/12/18 16:23:16;;;;;;;21.98;14.05;;;22.70;45.00;;;;;;6068077;28;88351;-69
2022/12/18 16:26:16;;;;;;;20.77;12.93;;;22.70;45.20;;;;;;6061602;28;85247;-70
2022/12/18 16:29:17;;;;;;;21.52;13.90;;;22.70;45.40;;;;;;6058654;28;84673;-70
2022/12/18 16:32:17;;;;;;;26.02;14.38;;;22.60;45.30;;;;;;6049790;28;85328;-67
2022/12/18 16:35:18;;;;;;;23.20;14.38;;;22.60;45.30;;;;;;6053229;28;83570;-71
2022/12/18 16:38:18;;;;;;;23.45;14.15;;;22.60;45.30;;;;;;6053359;28;83718;-58
2022/12/18 16:41:31;;;;;;;25.27;15.15;;;22.60;45.30;;;;;;6060228;28;83045;-59
2022/12/18 16:44:31;;;;;;;24.50;14.68;;;22.60;45.10;;;;;;6053195;28;83225;-60
2022/12/18 16:47:32;;;;;;;24.67;14.77;;;22.50;45.20;;;;;;6051100;28;83381;-58
2022/12/18 16:50:32;;;;;;;22.50;14.82;;;22.50;45.20;;;;;;6049721;28;86338;-58
2022/12/18 16:53:33;;;;;;;24.90;14.93;;;22.50;45.50;;;;;;6079789;28;83655;-60
2022/12/18 16:56:33;;;;;;;23.75;15.00;;;22.50;45.20;;;;;;6070288;28;83946;-60
2022/12/18 16:59:34;;;;;;;26.38;16.35;;;22.50;45.30;;;;;;6058494;28;83157;-60
2022/12/18 17:02:35;;;;;;;28.65;17.80;;;22.50;45.10;;;;;;6061095;28;84554;-58
2022/12/18 17:05:35;;;;;;;31.35;19.63;;;22.50;45.00;;;;;;6070117;28;85398;-61
2022/12/18 17:08:36;;;;;;;30.52;19.35;;;22.40;44.50;;;;;;6054266;28;88710;-59
2022/12/18 17:11:36;;;;;;;32.40;19.58;;;22.40;44.10;;;;;;6069713;28;83578;-59
2022/12/18 17:14:37;;;;;;;33.97;20.13;;;22.40;43.90;;;;;;6055047;28;83051;-59
2022/12/18 17:17:37;;;;;;;31.02;19.23;;;22.40;43.70;;;;;;6066732;28;85272;-59
2022/12/18 17:20:38;;;;;;;35.92;20.27;;;22.40;43.20;;;;;;6083930;28;85418;-59
2022/12/18 17:23:38;;;;;;;35.10;20.67;;;22.40;42.80;;;;;;6068868;28;86018;-57
2022/12/18 17:26:39;;;;;;;33.33;20.30;;;22.40;42.70;;;;;;6064974;28;83055;-58
2022/12/18 17:29:40;;;;;;;34.92;19.85;;;22.40;42.70;;;;;;6068311;28;83248;-59
2022/12/18 17:32:40;;;;;;;32.95;19.77;;;22.40;42.30;;;;;;6067975;28;83807;-68
2022/12/18 17:35:41;;;;;;;34.85;20.77;;;22.40;42.10;;;;;;6074891;28;83492;-67
2022/12/18 17:38:41;;;;;;;34.60;20.13;;;22.40;42.10;;;;;;6081979;28;83122;-67
2022/12/18 17:41:42;;;;;;;32.25;20.27;;;22.40;41.70;;;;;;6094900;28;86200;-71
2022/12/18 17:44:43;;;;;;;33.08;20.02;;;22.30;41.30;;;;;;6066445;28;83898;-69
2022/12/18 17:47:43;;;;;;;35.55;21.45;;;22.30;40.90;;;;;;6068264;28;83626;-70
2022/12/18 17:50:44;;;;;;;40.67;24.25;;;22.40;40.20;;;;;;6060318;28;83827;-62
2022/12/18 17:53:46;;;;;;;43.33;25.88;;;22.50;39.90;;;;;;6071517;28;84513;-61
2022/12/18 17:56:47;;;;;;;45.72;27.95;;;22.60;39.10;;;;;;6057721;28;83450;-59
2022/12/18 17:59:47;;;;;;;56.17;32.13;;;22.60;38.60;;;;;;6054082;28;83614;-59
2022/12/18 18:02:48;;;;;;;55.33;33.53;;;22.70;38.10;;;;;;6082850;28;83373;-60
2022/12/18 18:05:49;;;;;;;56.13;34.67;;;22.70;37.70;;;;;;6057601;28;84181;-60
2022/12/18 18:08:49;;;;;;;54.30;35.05;;;22.80;37.20;;;;;;6058527;28;83213;-59
2022/12/18 18:15:09;;;;;;;61.38;38.83;;;22.90;37.50;;;;;;6059030;28;83147;-58
2022/12/18 18:18:10;;;;;;;62.47;39.90;;;22.90;36.40;;;;;;6063236;28;83051;-60
2022/12/18 18:21:10;;;;;;;71.05;42.20;;;22.90;36.30;;;;;;6067842;28;83182;-59
2022/12/18 18:24:11;;;;;;;66.53;40.83;;;23.00;36.20;;;;;;6070494;28;84276;-60
2022/12/18 18:27:12;;;;;;;65.45;41.33;;;23.00;36.00;;;;;;6078799;28;89144;-60
2022/12/18 18:30:12;;;;;;;74.68;42.95;;;23.00;35.80;;;;;;6066316;28;83579;-60
2022/12/18 18:33:13;;;;;;;69.18;42.95;;;23.00;35.70;;;;;;6065260;28;84432;-59
2022/12/18 18:36:13;;;;;;;71.80;43.05;;;23.00;35.30;;;;;;6068632;28;84495;-57
2022/12/18 18:39:14;;;;;;;70.85;43.38;;;23.00;35.20;;;;;;6064652;28;83513;-60
2022/12/18 18:42:14;;;;;;;69.15;43.28;;;23.00;34.90;;;;;;6064642;28;83245;-59
2022/12/18 18:45:15;;;;;;;73.55;43.97;;;23.00;35.00;;;;;;6065849;28;85314;-69
2022/12/18 18:48:15;;;;;;;64.63;41.13;;;23.00;34.80;;;;;;6064800;28;83370;-62
2022/12/18 18:51:17;;;;;;;70.80;42.85;;;23.00;34.50;;;;;;6064785;28;83133;-62
2022/12/18 18:54:18;;;;;;;70.43;44.17;;;23.00;34.40;;;;;;6072533;28;83231;-66
2022/12/18 18:57:19;;;;;;;71.32;44.35;;;23.00;33.80;;;;;;6062622;28;86064;-65
2022/12/18 19:00:19;;;;;;;72.88;44.67;;;23.00;34.00;;;;;;6056997;28;84522;-70
2022/12/18 19:03:20;;;;;;;72.53;45.50;;;23.00;34.00;;;;;;6068685;28;87725;-58
2022/12/18 19:06:22;;;;;;;76.00;45.60;;;22.90;34.20;;;;;;6043006;28;83188;-54
2022/12/18 19:09:23;;;;;;;68.95;45.65;;;23.00;34.90;;;;;;6047602;28;85650;-56
2022/12/18 19:15:44;;;;;;;76.05;47.40;;;23.00;35.20;;;;;;6044721;28;88019;-59
2022/12/18 19:18:45;;;;;;;72.53;45.83;;;22.90;35.30;;;;;;6044668;28;83387;-59
2022/12/18 19:21:46;;;;;;;80.60;49.08;;;22.90;35.40;;;;;;6057608;28;85652;-59
2022/12/18 19:24:46;;;;;;;79.90;50.08;;;22.90;35.40;;;;;;6050633;28;83364;-60
2022/12/18 19:27:47;;;;;;;79.88;50.92;;;22.90;35.40;;;;;;6065010;28;83531;-59
2022/12/18 19:30:47;;;;;;;80.70;48.50;;;22.80;35.40;;;;;;6056664;28;83369;-59
2022/12/18 19:33:48;;;;;;;76.95;48.58;;;22.80;35.40;;;;;;6073022;28;83240;-60
2022/12/18 19:36:48;;;;;;;79.97;50.25;;;22.70;35.30;;;;;;6061705;28;84278;-61
2022/12/18 19:39:49;;;;;;;80.05;49.10;;;22.70;35.00;;;;;;6066887;28;83144;-58
2022/12/18 19:42:50;;;;;;;85.88;52.40;;;22.60;34.60;;;;;;6070422;28;84793;-60
2022/12/18 19:45:50;;;;;;;80.90;50.17;;;22.60;34.40;;;;;;6059910;28;82838;-58
2022/12/18 19:48:51;;;;;;;82.78;51.10;;;22.50;34.20;;;;;;6059770;28;84624;-56
2022/12/18 19:51:51;;;;;;;88.30;52.40;;;22.50;34.10;;;;;;6059427;28;83076;-58
2022/12/18 19:54:52;;;;;;;89.18;52.75;;;22.40;33.90;;;;;;6064409;28;84364;-59
2022/12/18 19:57:53;;;;;;;84.05;52.72;;;22.40;33.90;;;;;;6055592;28;86546;-60
2022/12/18 20:00:53;;;;;;;88.80;53.95;;;22.30;33.80;;;;;;6059742;28;83686;-61
2022/12/18 20:03:54;;;;;;;89.53;55.08;;;22.30;33.30;;;;;;6057949;28;85092;-60
2022/12/18 20:06:54;;;;;;;88.90;54.65;;;22.30;33.30;;;;;;6046227;28;83388;-60
2022/12/18 20:09:55;;;;;;;88.05;53.45;;;22.20;33.50;;;;;;6066920;28;85539;-59
2022/12/18 20:12:55;;;;;;;90.88;53.65;;;22.20;33.30;;;;;;6049516;28;84440;-58
2022/12/18 20:15:56;;;;;;;93.88;55.83;;;22.20;33.40;;;;;;6063451;28;83893;-60
2022/12/18 20:18:56;;;;;;;85.68;52.15;;;22.20;33.40;;;;;;6053437;28;84425;-68
2022/12/18 20:21:57;;;;;;;82.18;49.30;;;22.10;33.50;;;;;;6057540;28;85919;-60
2022/12/18 20:24:57;;;;;;;82.55;49.95;;;22.10;33.50;;;;;;6054607;28;83510;-61
2022/12/18 20:27:58;;;;;;;80.07;48.53;;;22.10;33.60;;;;;;6049042;28;83677;-60
2022/12/18 20:30:59;;;;;;;83.03;49.20;;;22.10;34.00;;;;;;6046831;28;84629;-60
2022/12/18 20:33:59;;;;;;;75.65;46.50;;;22.10;34.30;;;;;;6042850;28;83890;-60
2022/12/18 20:37:00;;;;;;;74.80;46.42;;;22.10;34.10;;;;;;6046427;28;85486;-62
2022/12/18 20:40:00;;;;;;;76.38;45.25;;;22.10;34.20;;;;;;6044856;28;85782;-61
2022/12/18 20:43:01;;;;;;;75.88;44.38;;;22.10;34.10;;;;;;6045161;28;85317;-60
2022/12/18 20:46:02;;;;;;;72.53;44.70;;;22.20;33.80;;;;;;6047586;28;85086;-63
2022/12/18 20:49:02;;;;;;;71.68;44.50;;;22.30;33.70;;;;;;6037758;28;83561;-63
2022/12/18 20:52:03;;;;;;;68.30;42.83;;;22.40;33.40;;;;;;6041297;28;85098;-61
2022/12/18 20:55:03;;;;;;;68.35;41.22;;;22.40;33.10;;;;;;6066868;28;85992;-59
2022/12/18 20:58:04;;;;;;;63.90;40.75;;;22.50;33.00;;;;;;6051714;28;83351;-62
2022/12/18 21:01:05;;;;;;;69.75;41.65;;;22.60;33.10;;;;;;6059330;28;84304;-60
2022/12/18 21:04:05;;;;;;;68.15;41.42;;;22.60;32.90;;;;;;6062184;28;87904;-61
2022/12/18 21:07:06;;;;;;;63.08;39.75;;;22.70;32.70;;;;;;6064824;28;84399;-60
2022/12/18 21:10:07;;;;;;;116.68;60.45;;;22.70;32.80;;;;;;6058078;28;86390;-65
2022/12/18 21:13:07;;;;;;;134.20;64.20;;;22.70;32.50;;;;;;6048072;28;85917;-60
2022/12/18 21:16:08;;;;;;;116.95;59.90;;;22.70;32.60;;;;;;6047045;28;83176;-64
2022/12/18 21:19:08;;;;;;;103.80;53.30;;;22.60;32.50;;;;;;6046433;28;82918;-61
2022/12/18 21:22:09;;;;;;;98.55;54.35;;;22.60;32.70;;;;;;6048016;28;84077;-60
2022/12/18 21:25:09;;;;;;;95.55;53.42;;;22.60;32.30;;;;;;6047586;28;84103;-61
2022/12/18 21:28:10;;;;;;;86.30;49.42;;;22.60;32.50;;;;;;6055573;28;84626;-61
2022/12/18 21:31:10;;;;;;;88.60;49.33;;;22.60;32.50;;;;;;6053229;28;83736;-68
2022/12/18 21:34:11;;;;;;;82.82;48.03;;;22.50;32.80;;;;;;6036197;28;85567;-64
2022/12/18 21:37:11;;;;;;;84.60;47.90;;;22.50;32.60;;;;;;6061431;28;83266;-67
2022/12/18 21:40:12;;;;;;;85.25;47.00;;;22.50;32.80;;;;;;6053235;28;84192;-67
2022/12/18 21:46:32;;;;;;;75.93;43.03;;;22.40;33.30;;;;;;6049024;28;85317;-67
2022/12/18 21:49:32;;;;;;;71.50;41.47;;;22.40;33.60;;;;;;6045849;28;83817;-62
2022/12/18 21:52:33;;;;;;;70.22;39.78;;;22.40;34.50;;;;;;6040025;28;88423;-70
2022/12/18 21:55:33;;;;;;;69.65;39.22;;;22.40;33.60;;;;;;6050749;28;87734;-62
2022/12/18 21:58:34;;;;;;;69.07;40.83;;;22.40;33.80;;;;;;6056029;28;84978;-73
2022/12/18 22:01:34;;;;;;;67.95;39.53;;;22.50;33.10;;;;;;6078408;28;83046;-73
2022/12/18 22:04:35;;;;;;;67.13;40.08;;;22.60;33.10;;;;;;6062984;28;90213;-69
2022/12/18 22:07:35;;;;;;;66.70;39.75;;;22.60;32.70;;;;;;6073695;28;84493;-72
2022/12/18 22:10:36;;;;;;;62.88;37.75;;;22.70;33.00;;;;;;6071042;28;83114;-69
2022/12/18 22:13:36;;;;;;;59.28;37.13;;;22.70;32.90;;;;;;6059127;28;84649;-60
2022/12/18 22:16:37;;;;;;;63.35;37.38;;;22.80;33.50;;;;;;6034126;28;86026;-73
2022/12/18 22:19:37;;;;;;;57.70;36.67;;;22.80;33.20;;;;;;6042435;28;83258;-67
2022/12/18 22:22:38;;;;;;;61.45;36.67;;;22.90;32.80;;;;;;6039814;28;83871;-68
2022/12/18 22:25:38;;;;;;;54.90;33.90;;;22.90;32.90;;;;;;6033653;28;83966;-72
2022/12/18 22:31:58;;;;;;;58.70;35.83;;;22.90;32.20;;;;;;6052759;28;83366;-70
2022/12/18 22:34:58;;;;;;;56.35;35.20;;;22.90;32.40;;;;;;6053191;28;88702;-72
2022/12/18 22:37:59;;;;;;;58.15;35.35;;;22.90;32.20;;;;;;6056841;28;84269;-73
2022/12/18 22:40:59;;;;;;;62.47;37.92;;;22.90;32.10;;;;;;6053172;28;88103;-71
2022/12/18 22:44:00;;;;;;;56.97;34.75;;;22.90;32.00;;;;;;6074169;28;86699;-71
2022/12/18 22:47:01;;;;;;;62.10;37.38;;;22.90;32.20;;;;;;6069054;28;83613;-74
2022/12/18 22:50:01;;;;;;;61.63;36.90;;;22.90;31.80;;;;;;6077295;28;83591;-70
2022/12/18 22:53:01;;;;;;;55.72;36.22;;;22.90;31.60;;;;;;6054265;28;83530;-72
2022/12/18 22:56:02;;;;;;;55.83;35.97;;;22.90;31.50;;;;;;6056456;28;83092;-71
2022/12/18 22:59:03;;;;;;;59.63;36.95;;;22.90;31.70;;;;;;6058256;28;83375;-70
2022/12/18 23:02:03;;;;;;;61.92;37.30;;;22.90;31.60;;;;;;6054661;28;84281;-65
2022/12/18 23:05:04;;;;;;;70.07;40.92;;;22.90;30.80;;;;;;6074167;28;84280;-63
2022/12/18 23:08:04;;;;;;;58.17;37.35;;;22.90;31.80;;;;;;6076673;28;84486;-64
2022/12/18 23:11:04;;;;;;;59.90;37.35;;;22.80;31.80;;;;;;6074250;28;83588;-64
2022/12/18 23:14:05;;;;;;;66.82;40.08;;;22.80;31.70;;;;;;6075595;28;83394;-64
2022/12/18 23:17:05;;;;;;;65.93;39.20;;;22.80;31.60;;;;;;6088891;28;83637;-64
2022/12/18 23:20:06;;;;;;;62.65;38.90;;;22.70;31.70;;;;;;6075874;28;83474;-66
2022/12/18 23:23:06;;;;;;;63.55;39.42;;;22.70;31.70;;;;;;6074388;28;83199;-62
2022/12/18 23:26:07;;;;;;;67.43;39.60;;;22.60;31.60;;;;;;6074618;28;84542;-64
2022/12/18 23:29:07;;;;;;;63.65;38.40;;;22.60;31.50;;;;;;6074565;28;83968;-63
2022/12/18 23:32:08;;;;;;;61.53;39.47;;;22.50;31.80;;;;;;6077080;28;84004;-64
2022/12/18 23:35:09;;;;;;;63.97;39.90;;;22.50;31.70;;;;;;6100201;28;84663;-64
2022/12/18 23:38:09;;;;;;;66.30;40.17;;;22.50;31.60;;;;;;6083704;28;82988;-64
2022/12/18 23:41:10;;;;;;;64.40;39.58;;;22.40;31.50;;;;;;6072993;28;85248;-65
2022/12/18 23:44:10;;;;;;;67.20;40.95;;;22.40;31.90;;;;;;6076309;28;83204;-63
2022/12/18 23:47:11;;;;;;;68.47;40.95;;;22.30;31.60;;;;;;6088953;28;84326;-65
2022/12/18 23:50:11;;;;;;;63.83;40.45;;;22.30;31.30;;;;;;6077323;28;84708;-62
2022/12/18 23:53:12;;;;;;;62.40;38.60;;;22.30;31.70;;;;;;6066440;28;84979;-63
2022/12/18 23:56:13;;;;;;;63.88;39.03;;;22.20;32.20;;;;;;6062275;28;83327;-61
2022/12/18 23:59:13;;;;;;;62.75;39.05;;;22.20;32.00;;;;;;6076491;28;83201;-63
